Página principal
METAR-TAF:

METAR-TAF

Aeroportos :

Aeroporto Internacional Simón Bolívar

Caracas, Venezuela

latitude: 10-36N, longitude: 066-59W, altura: 43 m

Observação actual do tempo

O boletim foi feito há 49 minutos, às 05:00 UTC
Vento 2 kt de es-sudeste
Temperatura 24°C
Humidade 89%
Pressão 1011 hPa
Visibilidade 10 km ou mais
Poucas nuvensa uma altura de 1600 ft

METAR: SVMI 230500Z 11002KT 9999 FEW016 24/22 Q1011

Hora: 01:49 (05:49 UTC)

Previsão

O boletim foi feito há 7 horas e 49 minutos, às 22:00 UTC
Previsão válida de 22 às 00 UTC a 23 às 00 UTC
Vento 4 kt de oeste
Visibilidade 10 km ou mais
Nuvens dispersasa uma altura de 1600 ft
Tornando-se
de 22 às 04 UTC a 22 às 08 UTC
Vento 2 kt de oes-noroeste
Visibilidade: 9000 m
Nuvens fragmentadasa uma altura de 8000 ft
chuvisco fraco

TAF: SVMI 222200Z 2200/2300 27004KT 9999 SCT016 TX33/18Z TN25/10Z BECMG 2204/2208 30002KT 9000 -DZ BKN080

Observações e previsões do tempo de mais de 4000 aeroportos (mensagens METAR e TAF).

As estações disponíveis são os pontos amarelos e vermelhos sobre o mapa.

Mova o rato sobre o mapa para ver o nome da estação.

Depois clique no ponto para visualizar as observações e previsões meteorológicas.

Para alterar o mapa : clique nos botões verdes com uma cruz preta para aumentar o zoom; no botão verde com uma pitada de zoom; ou nas setas verdes para mapas adjacentes.


METAR-TAF: